EPSC/SZZ METAR and TAF weather

Enter ICAO airport designator
Station Type Date Time Source
EPSC METAR 2021/07/29 02:00 UTC NOAA

EPSC 290200Z 13005KT CAVOK 14/13 Q1009


Station Type Date Time Source
EPSC Decoded METAR 2021/07/29 02:00 UTC NOAA

Szczecin, Poland (EPSC) 53-24N 014-37E 3M
Jul 28, 2021 - 10:00 PM EDT / 2021.07.29 0200 UTC
Wind: from the SE (130 degrees) at 6 MPH (5 KT):0
Visibility: greater than 7 mile(s):0
Temperature: 57 F (14 C)
Dew Point: 55 F (13 C)
Relative Humidity: 93%
Pressure (altimeter): 29.80 in. Hg (1009 hPa)
ob: EPSC 290200Z 13005KT CAVOK 14/13 Q1009
cycle: 2

Station Type Date Time Source
EPSC TAF 2021/07/28 18:33 UTC NOAA

TAF EPSC 281730Z 2818/2918 21005KT CAVOK
BECMG 2909/2910 27010KT PROB40
TEMPO 2909/2915 27015G27KT SCT030TCU

Example: see airport list